Time;durP1;ratioP1;P1;durP2;ratioP2;P2;SDS_P1;SDS_P2;PMS_P1;PMS_P2;Temp;Humidity;BMP_temperature;BMP_pressure;BME280_temperature;BME280_humidity;BME280_pressure;Samples;Min_cycle;Max_cycle;Signal;HPM_P1;HPM_P2
2023/03/01 00:04:47;;;;;;;148.33;66.27;;;;;;;;;;10387090;28;20426;-84
2023/03/01 00:09:49;;;;;;;153.70;63.47;;;;;;;;;;10392197;28;20033;-85
2023/03/01 00:14:50;;;;;;;142.70;59.27;;;;;;;;;;10391960;28;20036;-86
2023/03/01 00:19:51;;;;;;;139.90;59.13;;;;;;;;;;10393137;28;20083;-85
2023/03/01 00:24:52;;;;;;;133.93;55.17;;;;;;;;;;10401175;28;20527;-85
2023/03/01 00:29:53;;;;;;;142.97;56.90;;;;;;;;;;10389861;28;20033;-85
2023/03/01 00:34:54;;;;;;;126.80;52.43;;;;;;;;;;10387150;28;20044;-85
2023/03/01 00:39:55;;;;;;;126.40;49.50;;;;;;;;;;10383265;28;20092;-85
2023/03/01 00:44:56;;;;;;;117.30;49.33;;;;;;;;;;10386554;28;20037;-85
2023/03/01 00:49:57;;;;;;;112.80;47.80;;;;;;;;;;10383008;28;20041;-84
2023/03/01 00:54:58;;;;;;;105.27;45.67;;;;;;;;;;10384641;28;20101;-84
2023/03/01 00:59:59;;;;;;;111.00;44.97;;;;;;;;;;10396164;28;20041;-85
2023/03/01 01:05:00;;;;;;;101.20;41.47;;;;;;;;;;10402776;28;20392;-84
2023/03/01 01:10:01;;;;;;;96.73;41.07;;;;;;;;;;10402442;28;20037;-84
2023/03/01 01:15:02;;;;;;;94.30;40.37;;;;;;;;;;10376684;28;20392;-84
2023/03/01 01:20:04;;;;;;;95.20;38.77;;;;;;;;;;10371847;28;20159;-84
2023/03/01 01:25:05;;;;;;;95.47;41.83;;;;;;;;;;10393113;28;20028;-84
2023/03/01 01:30:06;;;;;;;96.73;40.17;;;;;;;;;;10393872;28;20025;-83
2023/03/01 01:35:07;;;;;;;89.23;37.73;;;;;;;;;;10368851;28;20033;-85
2023/03/01 01:40:10;;;;;;;97.73;39.13;;;;;;;;;;10389458;28;20036;-84
2023/03/01 01:45:30;;;;;;;83.30;37.30;;;;;;;;;;10387238;28;20029;-85
2023/03/01 01:50:37;;;;;;;87.83;36.80;;;;;;;;;;10380349;28;20042;-84
2023/03/01 01:55:41;;;;;;;88.50;37.07;;;;;;;;;;10395658;28;20053;-84
2023/03/01 02:00:42;;;;;;;76.40;31.37;;;;;;;;;;10392101;28;20049;-85
2023/03/01 02:06:04;;;;;;;81.80;34.57;;;;;;;;;;10384185;28;20061;-84
2023/03/01 02:11:05;;;;;;;74.40;32.20;;;;;;;;;;10404177;28;20768;-84
2023/03/01 02:16:11;;;;;;;75.60;32.63;;;;;;;;;;10390346;28;20493;-85
2023/03/01 02:21:32;;;;;;;76.03;30.45;;;;;;;;;;10395952;28;20404;-85
2023/03/01 02:26:48;;;;;;;88.07;36.90;;;;;;;;;;10391530;28;20035;-85
2023/03/01 02:31:50;;;;;;;78.57;33.40;;;;;;;;;;10381415;28;20060;-84
2023/03/01 02:37:24;;;;;;;87.43;37.70;;;;;;;;;;10400246;28;20382;-84
2023/03/01 02:42:32;;;;;;;91.00;38.30;;;;;;;;;;10379504;28;20049;-82
2023/03/01 02:47:33;;;;;;;89.60;37.73;;;;;;;;;;10374192;28;20366;-84
2023/03/01 02:52:37;;;;;;;98.67;41.83;;;;;;;;;;10376889;28;20044;-84
2023/03/01 02:57:39;;;;;;;94.40;38.63;;;;;;;;;;10389551;28;20065;-85
2023/03/01 03:02:40;;;;;;;97.57;40.73;;;;;;;;;;10379402;28;20034;-84
2023/03/01 03:07:43;;;;;;;101.33;39.83;;;;;;;;;;10396799;28;20022;-83
2023/03/01 03:12:44;;;;;;;91.03;37.07;;;;;;;;;;10386531;28;20103;-85
2023/03/01 03:17:45;;;;;;;86.03;37.63;;;;;;;;;;10365197;28;20095;-85
2023/03/01 03:22:47;;;;;;;81.87;34.47;;;;;;;;;;10400258;28;20034;-84
2023/03/01 03:27:49;;;;;;;86.37;36.37;;;;;;;;;;10390871;28;20099;-84
2023/03/01 03:32:53;;;;;;;82.93;34.80;;;;;;;;;;10372545;28;20033;-83
2023/03/01 03:38:06;;;;;;;79.63;33.73;;;;;;;;;;10400764;28;20096;-84
2023/03/01 03:43:08;;;;;;;81.30;35.37;;;;;;;;;;10385126;28;20038;-84
2023/03/01 03:48:10;;;;;;;73.53;31.50;;;;;;;;;;10385990;28;20029;-85
2023/03/01 03:53:11;;;;;;;79.00;34.10;;;;;;;;;;10386954;28;20115;-83
2023/03/01 03:58:12;;;;;;;81.00;33.13;;;;;;;;;;10392860;28;20050;-83
2023/03/01 04:03:14;;;;;;;77.50;33.20;;;;;;;;;;10363069;28;20038;-83
2023/03/01 04:08:15;;;;;;;78.47;33.03;;;;;;;;;;10378192;28;20025;-83
2023/03/01 04:13:21;;;;;;;80.83;32.30;;;;;;;;;;10387149;28;20394;-83
2023/03/01 04:18:24;;;;;;;79.55;32.92;;;;;;;;;;10371478;28;20078;-82
2023/03/01 04:23:25;;;;;;;78.33;33.87;;;;;;;;;;10394013;28;20042;-83
2023/03/01 04:28:34;;;;;;;79.33;33.77;;;;;;;;;;10400141;28;20029;-82
2023/03/01 04:33:35;;;;;;;80.60;33.93;;;;;;;;;;10385639;28;20025;-83
2023/03/01 04:38:37;;;;;;;80.77;34.90;;;;;;;;;;10394469;28;20038;-84
2023/03/01 04:43:38;;;;;;;76.80;33.00;;;;;;;;;;10397782;28;20791;-81
2023/03/01 04:48:40;;;;;;;73.40;33.17;;;;;;;;;;10351858;28;20069;-83
2023/03/01 04:53:42;;;;;;;66.60;29.33;;;;;;;;;;10362249;28;20069;-86
2023/03/01 04:58:44;;;;;;;76.40;31.33;;;;;;;;;;10386127;28;20026;-84
2023/03/01 05:03:46;;;;;;;76.23;32.37;;;;;;;;;;10359013;28;20042;-82
2023/03/01 05:08:48;;;;;;;80.67;34.10;;;;;;;;;;10387167;28;20036;-84
2023/03/01 05:13:52;;;;;;;77.53;32.27;;;;;;;;;;10363715;28;20507;-85
2023/03/01 05:18:55;;;;;;;85.33;35.47;;;;;;;;;;10369771;28;20038;-84
2023/03/01 05:23:56;;;;;;;90.17;36.00;;;;;;;;;;10397943;28;20401;-83
2023/03/01 05:28:58;;;;;;;88.30;40.90;;;;;;;;;;10393727;28;20033;-84
2023/03/01 05:33:59;;;;;;;94.17;40.73;;;;;;;;;;10405400;28;20466;-84
2023/03/01 05:39:00;;;;;;;79.40;30.63;;;;;;;;;;10391731;28;20029;-86
2023/03/01 05:44:01;;;;;;;80.97;33.27;;;;;;;;;;10405089;28;20064;-84
2023/03/01 05:49:04;;;;;;;78.27;34.20;;;;;;;;;;10404652;28;20584;-84
2023/03/01 05:54:05;;;;;;;84.33;35.77;;;;;;;;;;10404610;28;20094;-84
2023/03/01 05:59:06;;;;;;;100.63;41.43;;;;;;;;;;10404837;28;20032;-84
2023/03/01 06:04:07;;;;;;;94.90;40.67;;;;;;;;;;10403633;28;20033;-83
2023/03/01 06:09:09;;;;;;;92.67;42.53;;;;;;;;;;10404108;28;20029;-84
2023/03/01 06:14:13;;;;;;;110.57;45.43;;;;;;;;;;10404071;28;20151;-84
2023/03/01 06:19:14;;;;;;;114.50;45.53;;;;;;;;;;10404260;28;20033;-84
2023/03/01 06:24:15;;;;;;;93.67;43.07;;;;;;;;;;10403472;28;20102;-84
2023/03/01 06:29:16;;;;;;;99.03;43.27;;;;;;;;;;10402517;28;20033;-83
2023/03/01 06:34:17;;;;;;;99.70;43.90;;;;;;;;;;10402435;28;20083;-84
2023/03/01 06:39:18;;;;;;;89.47;38.40;;;;;;;;;;10401723;28;20037;-84
2023/03/01 06:44:19;;;;;;;88.50;39.97;;;;;;;;;;10402619;28;20064;-84
2023/03/01 06:49:20;;;;;;;85.00;38.17;;;;;;;;;;10402583;28;20049;-84
2023/03/01 06:54:22;;;;;;;88.07;38.63;;;;;;;;;;10401213;28;20045;-84
2023/03/01 06:59:23;;;;;;;88.67;38.03;;;;;;;;;;10402745;28;20013;-84
2023/03/01 07:04:24;;;;;;;86.27;37.87;;;;;;;;;;10402703;28;20037;-83
2023/03/01 07:09:25;;;;;;;78.13;34.03;;;;;;;;;;10402102;28;20267;-84
2023/03/01 07:14:26;;;;;;;77.23;34.60;;;;;;;;;;10401549;28;20036;-84
2023/03/01 07:19:27;;;;;;;86.63;40.23;;;;;;;;;;10402252;28;20109;-84
2023/03/01 07:24:29;;;;;;;87.90;41.60;;;;;;;;;;10403010;28;20060;-84
2023/03/01 07:29:30;;;;;;;63.53;29.67;;;;;;;;;;10401526;28;20115;-84
2023/03/01 07:34:31;;;;;;;66.80;30.03;;;;;;;;;;10402317;28;20048;-84
2023/03/01 07:39:32;;;;;;;59.00;28.53;;;;;;;;;;10402356;28;20041;-85
2023/03/01 07:44:34;;;;;;;65.40;27.63;;;;;;;;;;10410131;28;20477;-84
2023/03/01 07:49:35;;;;;;;59.70;26.27;;;;;;;;;;10409460;28;20484;-85
2023/03/01 07:54:36;;;;;;;60.13;28.20;;;;;;;;;;10395930;28;20057;-83
2023/03/01 07:59:37;;;;;;;59.37;25.67;;;;;;;;;;10409224;28;20045;-83
2023/03/01 08:04:38;;;;;;;54.33;23.97;;;;;;;;;;10408159;28;20036;-84
2023/03/01 08:09:39;;;;;;;50.77;22.60;;;;;;;;;;10408566;28;20029;-83
2023/03/01 08:14:40;;;;;;;41.03;20.07;;;;;;;;;;10409307;28;20424;-84
2023/03/01 08:19:41;;;;;;;41.60;18.63;;;;;;;;;;10408723;28;20026;-83
2023/03/01 08:24:42;;;;;;;35.13;18.40;;;;;;;;;;10408608;28;20095;-83
2023/03/01 08:29:43;;;;;;;31.87;16.50;;;;;;;;;;10407662;28;20366;-84
2023/03/01 08:34:47;;;;;;;32.30;16.67;;;;;;;;;;10407942;28;20141;-83
2023/03/01 08:39:48;;;;;;;34.33;17.10;;;;;;;;;;10394522;28;20040;-83
2023/03/01 08:44:49;;;;;;;34.57;16.17;;;;;;;;;;10405744;28;20091;-84
2023/03/01 08:49:51;;;;;;;31.50;15.53;;;;;;;;;;10407152;28;20026;-84
2023/03/01 08:54:52;;;;;;;33.80;17.33;;;;;;;;;;10404405;28;20604;-83
2023/03/01 08:59:55;;;;;;;32.40;15.77;;;;;;;;;;10407406;28;20032;-83
2023/03/01 09:04:56;;;;;;;29.43;14.87;;;;;;;;;;10406415;28;20396;-84
2023/03/01 09:09:57;;;;;;;32.40;16.63;;;;;;;;;;10406019;28;20026;-83
2023/03/01 09:14:58;;;;;;;29.27;15.37;;;;;;;;;;10406486;28;20170;-83
2023/03/01 09:19:59;;;;;;;29.87;14.47;;;;;;;;;;10406591;28;20080;-83
2023/03/01 09:25:01;;;;;;;28.80;14.77;;;;;;;;;;10405920;28;20091;-83
2023/03/01 09:30:02;;;;;;;26.10;13.83;;;;;;;;;;10375131;28;20377;-84
2023/03/01 09:35:04;;;;;;;28.80;14.57;;;;;;;;;;10405404;28;20056;-83
2023/03/01 09:40:06;;;;;;;30.07;13.97;;;;;;;;;;10405224;28;20103;-84
2023/03/01 09:45:12;;;;;;;30.97;15.80;;;;;;;;;;10392417;28;20120;-83
2023/03/01 09:50:16;;;;;;;29.25;15.55;;;;;;;;;;10404895;28;20500;-83
2023/03/01 09:55:29;;;;;;;31.83;17.00;;;;;;;;;;10403651;28;20080;-83
2023/03/01 10:00:36;;;;;;;32.07;17.87;;;;;;;;;;10390849;28;20033;-83
2023/03/01 10:05:46;;;;;;;37.37;19.17;;;;;;;;;;10403345;28;20033;-83
2023/03/01 10:10:48;;;;;;;32.43;16.53;;;;;;;;;;10403661;28;20132;-83
2023/03/01 10:15:54;;;;;;;33.47;17.30;;;;;;;;;;10403786;28;20710;-83
2023/03/01 10:21:03;;;;;;;32.87;17.17;;;;;;;;;;10402744;28;20029;-83
2023/03/01 10:26:16;;;;;;;38.20;18.23;;;;;;;;;;10402983;28;20041;-83
2023/03/01 10:31:22;;;;;;;33.37;18.27;;;;;;;;;;10380884;28;20033;-83
2023/03/01 10:36:24;;;;;;;28.60;15.60;;;;;;;;;;10403048;28;20025;-83
2023/03/01 10:41:26;;;;;;;37.23;16.00;;;;;;;;;;10403379;28;20037;-83
2023/03/01 10:46:29;;;;;;;33.27;18.20;;;;;;;;;;10382480;28;20034;-83
2023/03/01 10:51:30;;;;;;;55.70;23.00;;;;;;;;;;10397781;28;20033;-82
2023/03/01 10:56:46;;;;;;;48.80;22.07;;;;;;;;;;10401127;28;20485;-83
2023/03/01 11:02:01;;;;;;;32.50;17.70;;;;;;;;;;10388676;28;20041;-83
2023/03/01 11:07:02;;;;;;;32.37;17.83;;;;;;;;;;10403318;28;20023;-82
2023/03/01 11:12:05;;;;;;;38.50;19.77;;;;;;;;;;10401613;28;20018;-82
2023/03/01 11:17:13;;;;;;;31.13;15.73;;;;;;;;;;10408391;28;20021;-82
2023/03/01 11:22:17;;;;;;;39.40;21.23;;;;;;;;;;10410527;28;20051;-82
2023/03/01 11:27:34;;;;;;;26.83;14.30;;;;;;;;;;10411148;28;20416;-83
2023/03/01 11:32:39;;;;;;;25.53;13.30;;;;;;;;;;10398278;28;20022;-83
2023/03/01 11:37:56;;;;;;;26.93;14.20;;;;;;;;;;10410129;28;20935;-83
2023/03/01 11:43:03;;;;;;;24.73;13.00;;;;;;;;;;10409566;28;20037;-83
2023/03/01 11:48:18;;;;;;;22.47;13.13;;;;;;;;;;10409144;28;20099;-83
2023/03/01 11:53:35;;;;;;;25.37;13.27;;;;;;;;;;10409590;28;20022;-83
2023/03/01 11:59:03;;;;;;;20.97;12.00;;;;;;;;;;10408610;28;20037;-83
2023/03/01 12:04:23;;;;;;;75.30;39.70;;;;;;;;;;10408636;28;20029;-83
2023/03/01 12:09:39;;;;;;;21.87;11.23;;;;;;;;;;10409220;28;20026;-82
2023/03/01 12:14:55;;;;;;;24.33;12.93;;;;;;;;;;10408619;28;20465;-82
2023/03/01 12:20:15;;;;;;;23.83;12.93;;;;;;;;;;10408529;28;20024;-83
2023/03/01 12:25:22;;;;;;;24.20;12.80;;;;;;;;;;10408569;28;20530;-83
2023/03/01 12:30:41;;;;;;;20.90;11.47;;;;;;;;;;10407068;28;20032;-83
2023/03/01 12:36:08;;;;;;;46.43;23.50;;;;;;;;;;10408552;28;20117;-83
2023/03/01 12:41:28;;;;;;;19.67;10.40;;;;;;;;;;10404695;28;20049;-83
2023/03/01 12:46:39;;;;;;;16.50;9.03;;;;;;;;;;10408224;28;20079;-83
2023/03/01 12:51:40;;;;;;;19.23;9.77;;;;;;;;;;10407634;28;20076;-83
2023/03/01 12:56:41;;;;;;;20.43;9.90;;;;;;;;;;10394252;28;20054;-83
2023/03/01 13:02:02;;;;;;;21.77;10.07;;;;;;;;;;10406884;28;20045;-83
2023/03/01 13:07:08;;;;;;;22.83;12.60;;;;;;;;;;10385080;28;20014;-83
2023/03/01 13:12:28;;;;;;;26.10;12.97;;;;;;;;;;10402872;28;20041;-83
2023/03/01 13:17:31;;;;;;;25.63;13.73;;;;;;;;;;10380586;28;20032;-82
2023/03/01 13:22:33;;;;;;;25.57;13.30;;;;;;;;;;10381763;28;20062;-82
2023/03/01 13:27:34;;;;;;;27.03;12.23;;;;;;;;;;10398532;28;20135;-81
2023/03/01 13:32:41;;;;;;;27.57;14.10;;;;;;;;;;10400840;28;20080;-80
2023/03/01 13:37:42;;;;;;;24.43;13.80;;;;;;;;;;10396192;28;20057;-81
2023/03/01 13:42:45;;;;;;;23.37;14.07;;;;;;;;;;10404249;28;20099;-82
2023/03/01 13:47:49;;;;;;;30.27;14.33;;;;;;;;;;10403971;28;20100;-81
2023/03/01 13:52:53;;;;;;;28.67;15.43;;;;;;;;;;10384432;28;20125;-82
2023/03/01 13:57:56;;;;;;;25.93;13.80;;;;;;;;;;10388242;28;20076;-81
2023/03/01 14:03:06;;;;;;;23.73;13.47;;;;;;;;;;10404301;28;20049;-82
2023/03/01 14:08:19;;;;;;;28.73;13.37;;;;;;;;;;10395592;28;20069;-81
2023/03/01 14:13:27;;;;;;;26.87;15.43;;;;;;;;;;10370051;28;20473;-82
2023/03/01 14:18:48;;;;;;;25.27;13.03;;;;;;;;;;10387900;28;20083;-82
2023/03/01 14:23:49;;;;;;;22.87;12.10;;;;;;;;;;10383503;28;20416;-81
2023/03/01 14:28:51;;;;;;;24.73;12.67;;;;;;;;;;10347149;28;20040;-82
2023/03/01 14:33:56;;;;;;;24.10;12.03;;;;;;;;;;10399618;28;20037;-82
2023/03/01 14:39:04;;;;;;;26.90;15.17;;;;;;;;;;10384346;28;20418;-82
2023/03/01 14:44:08;;;;;;;64.20;31.80;;;;;;;;;;10377645;28;20037;-82
2023/03/01 14:49:12;;;;;;;25.10;11.90;;;;;;;;;;10401658;28;20029;-82
2023/03/01 14:54:21;;;;;;;119.00;62.43;;;;;;;;;;10369945;28;20053;-82
2023/03/01 14:59:24;;;;;;;23.97;11.60;;;;;;;;;;10393568;28;20075;-82
2023/03/01 15:04:26;;;;;;;23.17;12.27;;;;;;;;;;10377516;28;20104;-82
2023/03/01 15:09:27;;;;;;;20.50;10.20;;;;;;;;;;10358313;28;20525;-82
2023/03/01 15:14:44;;;;;;;15.10;8.47;;;;;;;;;;10360406;28;20485;-83
2023/03/01 15:19:44;;;;;;;;;;;;;;;;;;10363219;28;20502;-81
2023/03/01 15:24:49;;;;;;;17.70;7.83;;;;;;;;;;10353325;28;19917;-80
2023/03/01 15:29:52;;;;;;;15.07;7.60;;;;;;;;;;10379989;28;20507;-81
2023/03/01 15:34:53;;;;;;;12.37;7.00;;;;;;;;;;10354844;28;20117;-82
2023/03/01 15:39:55;;;;;;;17.83;8.17;;;;;;;;;;10355849;28;20026;-80
2023/03/01 15:45:20;;;;;;;21.20;10.47;;;;;;;;;;10385792;28;20061;-82
2023/03/01 15:50:23;;;;;;;26.57;11.37;;;;;;;;;;10370606;28;20034;-82
2023/03/01 15:55:29;;;;;;;22.20;10.80;;;;;;;;;;10373715;28;20061;-84
2023/03/01 16:00:30;;;;;;;24.77;10.57;;;;;;;;;;10364068;28;20025;-84
2023/03/01 16:05:34;;;;;;;28.83;12.37;;;;;;;;;;10380591;28;20060;-82
2023/03/01 16:10:35;;;;;;;22.23;10.30;;;;;;;;;;10378188;28;20322;-84
2023/03/01 16:15:37;;;;;;;18.60;8.80;;;;;;;;;;10400327;28;20132;-84
2023/03/01 16:20:38;;;;;;;18.43;9.90;;;;;;;;;;10381103;28;20041;-84
2023/03/01 16:25:40;;;;;;;24.20;11.07;;;;;;;;;;10362890;28;20132;-83
2023/03/01 16:30:46;;;;;;;20.50;9.73;;;;;;;;;;10379295;28;20665;-83
2023/03/01 16:35:49;;;;;;;20.73;8.93;;;;;;;;;;10360207;28;20046;-83
2023/03/01 16:40:51;;;;;;;18.87;8.97;;;;;;;;;;10364839;28;20044;-83
2023/03/01 16:45:52;;;;;;;25.27;9.90;;;;;;;;;;10366221;28;20038;-82
2023/03/01 16:50:57;;;;;;;25.97;11.30;;;;;;;;;;10365638;28;20030;-82
2023/03/01 16:55:58;;;;;;;34.73;15.30;;;;;;;;;;10365575;28;20085;-83
2023/03/01 17:01:04;;;;;;;36.03;15.87;;;;;;;;;;10364713;28;20498;-83
2023/03/01 17:06:06;;;;;;;37.35;15.93;;;;;;;;;;10365118;28;20109;-82
2023/03/01 17:11:11;;;;;;;59.93;24.63;;;;;;;;;;10383632;28;20180;-82
2023/03/01 17:16:14;;;;;;;92.28;39.17;;;;;;;;;;10385465;28;20149;-82
2023/03/01 17:26:57;;;;;;;76.60;29.30;;;;;;;;;;10392155;28;20068;-84
2023/03/01 17:31:58;;;;;;;77.77;33.50;;;;;;;;;;10388300;28;20060;-86
2023/03/01 17:36:59;;;;;;;91.43;37.23;;;;;;;;;;10390024;28;20382;-84
2023/03/01 17:42:00;;;;;;;103.33;44.77;;;;;;;;;;10398920;28;20041;-86
2023/03/01 17:47:02;;;;;;;73.97;30.30;;;;;;;;;;10393754;28;20030;-85
2023/03/01 17:52:03;;;;;;;60.40;26.33;;;;;;;;;;10368619;28;20026;-84
2023/03/01 17:57:04;;;;;;;65.37;27.27;;;;;;;;;;10365530;28;20053;-84
2023/03/01 18:02:05;;;;;;;68.97;28.50;;;;;;;;;;10357885;28;20042;-84
2023/03/01 18:07:06;;;;;;;70.13;29.10;;;;;;;;;;10382746;28;20073;-84
2023/03/01 18:12:09;;;;;;;70.57;29.97;;;;;;;;;;10382337;28;20108;-84
2023/03/01 18:17:13;;;;;;;81.90;32.50;;;;;;;;;;10387078;28;20116;-85
2023/03/01 18:22:14;;;;;;;77.43;31.60;;;;;;;;;;10367666;28;20029;-83
2023/03/01 18:27:15;;;;;;;78.53;33.63;;;;;;;;;;10362324;28;20065;-86
2023/03/01 18:32:16;;;;;;;80.90;33.13;;;;;;;;;;10351386;28;20037;-84
2023/03/01 18:37:17;;;;;;;78.67;32.47;;;;;;;;;;10361389;28;20073;-86
2023/03/01 18:42:21;;;;;;;79.90;34.10;;;;;;;;;;10361517;28;20029;-82
2023/03/01 18:47:22;;;;;;;87.13;36.73;;;;;;;;;;10354155;28;20103;-86
2023/03/01 18:52:23;;;;;;;90.37;37.57;;;;;;;;;;10361161;28;20079;-85
2023/03/01 18:57:24;;;;;;;89.33;37.57;;;;;;;;;;10355578;28;20197;-86
2023/03/01 19:02:25;;;;;;;92.50;36.87;;;;;;;;;;10360408;28;20038;-85
2023/03/01 19:07:26;;;;;;;81.07;34.90;;;;;;;;;;10371075;28;20030;-84
2023/03/01 19:12:27;;;;;;;80.27;33.80;;;;;;;;;;10402556;28;20087;-85
2023/03/01 19:17:29;;;;;;;79.50;31.27;;;;;;;;;;10396343;28;20500;-84
2023/03/01 19:22:30;;;;;;;74.10;29.83;;;;;;;;;;10377400;28;20050;-86
2023/03/01 19:27:31;;;;;;;71.90;30.57;;;;;;;;;;10366965;28;20156;-84
2023/03/01 19:32:33;;;;;;;66.87;29.10;;;;;;;;;;10372667;28;20033;-84
2023/03/01 19:37:34;;;;;;;67.50;29.60;;;;;;;;;;10392456;28;20037;-84
2023/03/01 19:42:35;;;;;;;65.60;28.87;;;;;;;;;;10403490;28;20132;-84
2023/03/01 19:47:36;;;;;;;65.80;30.17;;;;;;;;;;10396276;28;20692;-84
2023/03/01 19:52:37;;;;;;;70.47;31.13;;;;;;;;;;10384994;28;20120;-84
2023/03/01 19:57:38;;;;;;;79.87;34.67;;;;;;;;;;10388668;28;20582;-84
2023/03/01 20:02:39;;;;;;;87.73;37.53;;;;;;;;;;10362698;28;20040;-84
2023/03/01 20:07:40;;;;;;;82.53;37.17;;;;;;;;;;10381926;28;20037;-84
2023/03/01 20:12:41;;;;;;;106.37;45.33;;;;;;;;;;10392290;28;20041;-84
2023/03/01 20:17:42;;;;;;;110.13;44.23;;;;;;;;;;10393896;28;20044;-84
2023/03/01 20:22:43;;;;;;;96.93;38.60;;;;;;;;;;10397380;28;20489;-84
2023/03/01 20:27:46;;;;;;;88.30;35.40;;;;;;;;;;10393712;28;20045;-84
2023/03/01 20:32:47;;;;;;;82.20;35.53;;;;;;;;;;10387001;28;20038;-84
2023/03/01 20:37:50;;;;;;;86.67;34.17;;;;;;;;;;10402197;28;20052;-84
2023/03/01 20:42:51;;;;;;;92.53;37.47;;;;;;;;;;10394764;28;20040;-84
2023/03/01 20:47:52;;;;;;;87.50;38.53;;;;;;;;;;10378584;28;20413;-84
2023/03/01 20:52:53;;;;;;;90.60;36.30;;;;;;;;;;10391452;28;20037;-85
2023/03/01 20:57:54;;;;;;;96.37;39.00;;;;;;;;;;10394925;28;20049;-84
2023/03/01 21:02:55;;;;;;;95.63;41.17;;;;;;;;;;10370663;28;20128;-84
2023/03/01 21:07:57;;;;;;;95.83;40.43;;;;;;;;;;10392259;28;20026;-85
2023/03/01 21:12:58;;;;;;;104.83;45.47;;;;;;;;;;10402394;28;20029;-85
2023/03/01 21:17:59;;;;;;;98.43;42.33;;;;;;;;;;10380070;28;20487;-85
2023/03/01 21:23:00;;;;;;;113.20;47.23;;;;;;;;;;10387956;28;20472;-85
2023/03/01 21:28:01;;;;;;;110.70;45.30;;;;;;;;;;10395798;28;20044;-85
2023/03/01 21:33:02;;;;;;;113.77;46.20;;;;;;;;;;10390101;28;20155;-85
2023/03/01 21:38:03;;;;;;;109.50;43.67;;;;;;;;;;10395826;28;20064;-85
2023/03/01 21:43:04;;;;;;;114.67;48.47;;;;;;;;;;10405182;28;20171;-85
2023/03/01 21:48:05;;;;;;;118.90;48.13;;;;;;;;;;10390667;28;21159;-85
2023/03/01 21:53:06;;;;;;;134.77;55.10;;;;;;;;;;10398619;28;20797;-85
2023/03/01 21:58:07;;;;;;;143.27;55.73;;;;;;;;;;10403733;28;20061;-86
2023/03/01 22:03:08;;;;;;;135.67;55.57;;;;;;;;;;10386538;28;20036;-85
2023/03/01 22:08:09;;;;;;;144.83;55.27;;;;;;;;;;10401538;28;20472;-85
2023/03/01 22:13:10;;;;;;;133.90;58.90;;;;;;;;;;10395339;28;20033;-84
2023/03/01 22:18:12;;;;;;;138.43;57.60;;;;;;;;;;10366747;28;20033;-85
2023/03/01 22:23:13;;;;;;;134.83;56.57;;;;;;;;;;10386303;28;20101;-85
2023/03/01 22:28:14;;;;;;;126.83;52.47;;;;;;;;;;10398214;28;20029;-86
2023/03/01 22:33:15;;;;;;;132.87;53.90;;;;;;;;;;10382288;28;20037;-85
2023/03/01 22:38:16;;;;;;;130.47;52.97;;;;;;;;;;10392308;28;20040;-85
2023/03/01 22:43:17;;;;;;;132.07;53.77;;;;;;;;;;10396909;28;20045;-85
2023/03/01 22:48:18;;;;;;;128.10;54.07;;;;;;;;;;10373788;28;20057;-85
2023/03/01 22:53:19;;;;;;;134.00;53.80;;;;;;;;;;10397043;28;20060;-86
2023/03/01 22:58:20;;;;;;;134.53;55.07;;;;;;;;;;10402038;28;20065;-86
2023/03/01 23:03:21;;;;;;;128.03;51.70;;;;;;;;;;10369704;28;20041;-86
2023/03/01 23:08:22;;;;;;;130.80;56.23;;;;;;;;;;10400102;28;20030;-86
2023/03/01 23:13:24;;;;;;;124.47;50.07;;;;;;;;;;10385591;28;20049;-86
2023/03/01 23:18:25;;;;;;;112.13;46.57;;;;;;;;;;10374107;28;20029;-86
2023/03/01 23:23:26;;;;;;;122.13;47.87;;;;;;;;;;10394472;28;20030;-86
2023/03/01 23:28:27;;;;;;;118.40;48.77;;;;;;;;;;10373725;28;20033;-86
2023/03/01 23:33:32;;;;;;;106.87;48.10;;;;;;;;;;10383053;28;20601;-86
2023/03/01 23:38:33;;;;;;;118.53;50.00;;;;;;;;;;10389140;28;20029;-86
2023/03/01 23:43:34;;;;;;;116.83;51.00;;;;;;;;;;10394908;28;20698;-86
2023/03/01 23:48:35;;;;;;;117.77;48.73;;;;;;;;;;10380208;28;20038;-86
2023/03/01 23:53:37;;;;;;;124.77;50.77;;;;;;;;;;10399946;28;20031;-87
2023/03/01 23:58:38;;;;;;;117.90;50.90;;;;;;;;;;10391002;28;20037;-86
